createdAt,value
2022-07-26T00:00:01.131Z,2.90
2022-07-26T00:02:27.808Z,2.83
2022-07-26T00:04:54.518Z,2.58
2022-07-26T00:07:21.297Z,2.35
2022-07-26T00:09:48.636Z,2.78
2022-07-26T00:12:15.482Z,3.35
2022-07-26T00:14:43.448Z,2.22
2022-07-26T00:17:10.128Z,2.05
2022-07-26T00:19:36.912Z,4.35
2022-07-26T00:22:36.035Z,3.05
2022-07-26T00:25:07.827Z,2.60
2022-07-26T00:27:36.939Z,2.55
2022-07-26T00:30:08.818Z,2.08
2022-07-26T00:32:36.133Z,3.03
2022-07-26T00:35:03.656Z,3.50
2022-07-26T00:37:30.736Z,2.33
2022-07-26T00:39:57.398Z,2.85
2022-07-26T00:42:24.043Z,2.35
2022-07-26T00:44:50.755Z,2.38
2022-07-26T00:47:17.800Z,3.40
2022-07-26T00:49:44.652Z,2.92
2022-07-26T00:52:12.105Z,2.55
2022-07-26T00:54:40.422Z,1.90
2022-07-26T00:57:07.515Z,1.55
2022-07-26T00:59:34.285Z,2.53
2022-07-26T01:02:02.391Z,3.55
2022-07-26T01:04:29.279Z,1.75
2022-07-26T01:06:56.583Z,1.50
2022-07-26T01:09:23.552Z,1.63
2022-07-26T01:11:50.774Z,2.75
2022-07-26T01:14:23.958Z,2.50
2022-07-26T01:16:51.008Z,2.58
2022-07-26T01:19:18.047Z,1.92
2022-07-26T01:21:45.727Z,2.25
2022-07-26T01:24:12.664Z,1.55
2022-07-26T01:26:39.289Z,1.00
2022-07-26T01:29:06.440Z,1.17
2022-07-26T01:31:33.312Z,1.75
2022-07-26T01:34:00.085Z,1.50
2022-07-26T01:36:26.816Z,1.33
2022-07-26T01:38:53.553Z,1.85
2022-07-26T01:41:21.386Z,1.83
2022-07-26T01:44:04.657Z,1.73
2022-07-26T01:46:31.618Z,2.03
2022-07-26T01:48:58.751Z,1.98
2022-07-26T01:51:25.435Z,1.67
2022-07-26T01:53:52.071Z,2.25
2022-07-26T01:56:18.748Z,1.92
2022-07-26T01:58:45.404Z,1.55
2022-07-26T02:01:12.449Z,2.00
2022-07-26T02:03:39.120Z,1.45
2022-07-26T02:06:05.974Z,2.22
2022-07-26T02:08:32.880Z,1.73
2022-07-26T02:11:00.622Z,2.28
2022-07-26T02:13:31.454Z,1.40
2022-07-26T02:15:59.132Z,1.83
2022-07-26T02:18:27.904Z,2.17
2022-07-26T02:20:55.067Z,1.90
2022-07-26T02:23:22.145Z,1.77
2022-07-26T02:25:48.870Z,2.35
2022-07-26T02:28:16.849Z,2.38
2022-07-26T02:30:45.295Z,2.83
2022-07-26T02:33:12.121Z,1.33
2022-07-26T02:35:39.135Z,1.65
2022-07-26T02:38:08.626Z,1.90
2022-07-26T02:40:36.875Z,3.38
2022-07-26T02:43:05.134Z,2.20
2022-07-26T02:45:31.878Z,2.05
2022-07-26T02:47:59.011Z,3.08
2022-07-26T02:50:27.473Z,2.22
2022-07-26T02:52:54.787Z,3.95
2022-07-26T02:55:24.255Z,2.20
2022-07-26T02:57:51.544Z,2.13
2022-07-26T03:00:24.318Z,2.58
2022-07-26T03:02:51.373Z,2.38
2022-07-26T03:05:19.217Z,3.83
2022-07-26T03:07:45.995Z,3.38
2022-07-26T03:10:12.741Z,3.42
2022-07-26T03:12:39.482Z,2.72
2022-07-26T03:15:06.768Z,3.08
2022-07-26T03:17:33.453Z,3.60
2022-07-26T03:20:00.347Z,2.33
2022-07-26T03:22:27.005Z,3.55
2022-07-26T03:24:53.642Z,2.95
2022-07-26T03:27:20.305Z,2.92
2022-07-26T03:29:46.959Z,3.50
2022-07-26T03:32:13.636Z,3.83
2022-07-26T03:34:40.283Z,2.88
2022-07-26T03:37:06.942Z,2.92
2022-07-26T03:39:33.689Z,3.83
2022-07-26T03:42:00.312Z,1.63
2022-07-26T03:44:26.939Z,2.65
2022-07-26T03:46:53.568Z,3.33
2022-07-26T03:49:20.487Z,2.53
2022-07-26T03:51:47.168Z,2.30
2022-07-26T03:54:13.882Z,2.25
2022-07-26T03:56:40.744Z,3.05
2022-07-26T03:59:09.887Z,4.22
2022-07-26T04:01:42.123Z,2.63
2022-07-26T04:06:37.202Z,3.38
2022-07-26T04:09:05.400Z,3.72
2022-07-26T04:11:33.476Z,3.38
2022-07-26T04:14:00.738Z,4.25
2022-07-26T04:16:27.695Z,4.18
2022-07-26T04:18:54.759Z,3.63
2022-07-26T04:21:21.694Z,4.07
2022-07-26T04:23:51.389Z,3.65
2022-07-26T04:26:19.193Z,4.55
2022-07-26T04:28:45.904Z,3.85
2022-07-26T04:31:12.861Z,3.65
2022-07-26T04:33:39.526Z,4.72
2022-07-26T04:36:06.390Z,3.30
2022-07-26T04:38:33.046Z,5.40
2022-07-26T04:40:59.717Z,3.88
2022-07-26T04:43:26.412Z,3.47
2022-07-26T04:45:53.427Z,5.55
2022-07-26T04:48:20.116Z,5.10
2022-07-26T04:50:46.774Z,4.30
2022-07-26T04:53:13.778Z,3.97
2022-07-26T04:55:41.242Z,4.43
2022-07-26T04:58:08.579Z,5.53
2022-07-26T05:00:56.414Z,4.18
2022-07-26T05:03:24.935Z,3.35
2022-07-26T05:05:51.836Z,4.00
2022-07-26T05:08:18.556Z,3.83
2022-07-26T05:10:45.386Z,5.13
2022-07-26T05:13:12.152Z,5.28
2022-07-26T05:15:38.994Z,4.40
2022-07-26T05:18:10.776Z,4.40
2022-07-26T05:20:40.617Z,3.83
2022-07-26T05:23:07.293Z,3.78
2022-07-26T05:25:34.219Z,6.30
2022-07-26T05:28:01.080Z,3.90
2022-07-26T05:30:27.835Z,4.30
2022-07-26T05:32:54.505Z,4.05
2022-07-26T05:35:21.447Z,4.68
2022-07-26T05:37:48.089Z,3.67
2022-07-26T05:40:14.848Z,3.72
2022-07-26T05:42:41.499Z,4.70
2022-07-26T05:45:08.952Z,5.60
2022-07-26T05:47:35.675Z,4.20
2022-07-26T05:50:02.599Z,3.95
2022-07-26T05:52:29.302Z,4.40
2022-07-26T05:54:56.068Z,5.15
2022-07-26T05:57:22.743Z,3.35
2022-07-26T05:59:49.472Z,5.38
2022-07-26T06:02:16.199Z,5.60
2022-07-26T06:04:43.010Z,6.10
2022-07-26T06:07:09.726Z,4.38
2022-07-26T06:09:36.378Z,5.18
2022-07-26T06:12:03.267Z,5.13
2022-07-26T06:14:29.950Z,5.05
2022-07-26T06:16:56.837Z,4.38
2022-07-26T06:19:23.535Z,4.55
2022-07-26T06:21:50.287Z,4.43
2022-07-26T06:24:16.984Z,4.68
2022-07-26T06:26:44.487Z,6.18
2022-07-26T06:29:11.142Z,5.57
2022-07-26T06:31:38.095Z,5.40
2022-07-26T06:34:04.935Z,6.82
2022-07-26T06:36:31.722Z,5.97
2022-07-26T06:38:58.631Z,5.30
2022-07-26T06:41:25.447Z,5.68
2022-07-26T06:43:52.202Z,5.38
2022-07-26T06:46:20.849Z,6.57
2022-07-26T06:48:52.754Z,7.57
2022-07-26T06:51:19.898Z,4.55
2022-07-26T06:53:46.645Z,6.25
2022-07-26T06:56:14.867Z,5.90
2022-07-26T06:58:42.559Z,5.18
2022-07-26T07:01:09.997Z,5.15
2022-07-26T07:03:37.068Z,4.57
2022-07-26T07:06:03.990Z,4.53
2022-07-26T07:08:30.693Z,5.80
2022-07-26T07:10:58.753Z,6.05
2022-07-26T07:13:25.460Z,5.97
2022-07-26T07:15:52.174Z,4.47
2022-07-26T07:18:20.407Z,4.18
2022-07-26T07:20:47.535Z,5.80
2022-07-26T07:23:14.295Z,5.32
2022-07-26T07:25:40.959Z,4.45
2022-07-26T07:28:11.374Z,4.45
2022-07-26T07:30:37.986Z,4.53
2022-07-26T07:33:05.167Z,5.25
2022-07-26T07:35:32.275Z,5.68
2022-07-26T07:37:59.951Z,4.60
2022-07-26T07:40:26.760Z,5.13
2022-07-26T07:42:53.391Z,6.00
2022-07-26T07:45:20.158Z,5.85
2022-07-26T07:47:46.851Z,4.53
2022-07-26T07:50:13.597Z,4.03
2022-07-26T07:52:40.468Z,5.72
2022-07-26T07:55:36.460Z,5.57
2022-07-26T07:57:54.737Z,7.22
2022-07-26T08:00:27.232Z,3.92
2022-07-26T08:02:54.651Z,6.10
2022-07-26T08:05:21.542Z,5.78
2022-07-26T08:07:48.422Z,5.03
2022-07-26T08:10:15.194Z,5.22
2022-07-26T08:12:44.347Z,4.60
2022-07-26T08:15:11.474Z,4.20
2022-07-26T08:17:41.769Z,3.25
2022-07-26T08:20:10.876Z,2.05
2022-07-26T08:22:42.655Z,1.75
2022-07-26T08:25:10.113Z,2.50
2022-07-26T08:27:40.886Z,3.90
2022-07-26T08:30:08.489Z,4.30
2022-07-26T08:32:35.798Z,3.10
2022-07-26T08:35:17.371Z,3.90
2022-07-26T08:37:46.272Z,3.50
2022-07-26T08:40:13.113Z,4.22
2022-07-26T08:42:39.868Z,2.35
2022-07-26T08:45:06.980Z,2.38
2022-07-26T08:47:35.649Z,2.45
2022-07-26T08:50:07.546Z,2.10
2022-07-26T08:52:34.534Z,2.72
2022-07-26T08:55:01.198Z,2.65
2022-07-26T08:57:27.829Z,1.83
2022-07-26T09:00:14.340Z,2.00
2022-07-26T09:02:41.783Z,3.50
2022-07-26T09:05:08.582Z,4.15
2022-07-26T09:07:35.675Z,2.67
2022-07-26T09:10:05.351Z,2.55
2022-07-26T09:12:33.153Z,3.35
2022-07-26T09:15:01.267Z,4.72
2022-07-26T09:17:45.867Z,3.67
2022-07-26T09:20:28.071Z,3.85
2022-07-26T09:23:03.097Z,4.20
2022-07-26T09:25:35.949Z,2.67
2022-07-26T09:28:03.847Z,3.92
2022-07-26T09:30:32.132Z,3.58
2022-07-26T09:33:07.698Z,3.03
2022-07-26T09:35:51.056Z,3.05
2022-07-26T09:38:18.680Z,3.15
2022-07-26T09:40:50.907Z,3.38
2022-07-26T09:43:22.099Z,2.33
2022-07-26T09:46:05.074Z,3.80
2022-07-26T09:48:52.287Z,3.42
2022-07-26T09:51:42.002Z,2.70
2022-07-26T09:54:10.806Z,3.33
2022-07-26T09:56:49.471Z,2.95
2022-07-26T09:59:21.642Z,4.10
2022-07-26T10:01:49.733Z,3.28
2022-07-26T10:04:17.109Z,4.07
2022-07-26T10:06:44.081Z,2.83
2022-07-26T10:09:11.524Z,3.63
2022-07-26T10:11:59.701Z,4.25
2022-07-26T10:14:37.018Z,2.85
2022-07-26T10:17:31.036Z,2.92
2022-07-26T10:20:01.756Z,3.08
2022-07-26T10:22:43.418Z,2.13
2022-07-26T10:25:19.688Z,3.67
2022-07-26T10:27:52.138Z,1.67
2022-07-26T10:30:22.460Z,1.55
2022-07-26T10:32:54.534Z,1.85
2022-07-26T10:35:34.120Z,1.00
2022-07-26T10:38:03.486Z,0.63
2022-07-26T10:40:31.666Z,1.27
2022-07-26T10:46:17.726Z,1.15
2022-07-26T10:49:06.685Z,0.77
2022-07-26T10:51:42.491Z,0.90
2022-07-26T10:54:13.363Z,0.68
2022-07-26T10:56:40.822Z,1.02
2022-07-26T10:59:07.620Z,0.63
2022-07-26T11:01:36.461Z,0.75
2022-07-26T11:04:03.989Z,1.35
2022-07-26T11:06:31.039Z,0.80
2022-07-26T11:08:58.138Z,1.15
2022-07-26T11:11:32.771Z,0.80
2022-07-26T11:14:12.074Z,1.02
2022-07-26T11:16:40.129Z,0.68
2022-07-26T11:19:19.785Z,1.65
2022-07-26T11:21:53.462Z,0.88
2022-07-26T11:24:22.236Z,0.88
2022-07-26T11:26:48.977Z,0.73
2022-07-26T11:29:25.539Z,0.90
2022-07-26T11:32:12.995Z,1.42
2022-07-26T11:34:45.234Z,0.80
2022-07-26T11:37:12.472Z,1.15
2022-07-26T11:39:39.245Z,1.48
2022-07-26T11:42:11.932Z,0.55
2022-07-26T11:44:43.716Z,1.92
2022-07-26T11:47:13.084Z,1.25
2022-07-26T11:50:01.075Z,1.00
2022-07-26T11:52:31.546Z,1.50
2022-07-26T11:54:58.566Z,1.30
2022-07-26T11:57:30.425Z,1.00
2022-07-26T11:59:58.503Z,0.90
2022-07-26T12:02:25.900Z,0.70
2022-07-26T12:05:14.301Z,0.68
2022-07-26T12:07:57.775Z,1.38
2022-07-26T12:10:24.718Z,1.08
2022-07-26T12:13:06.878Z,1.40
2022-07-26T12:15:59.839Z,1.17
2022-07-26T12:18:29.233Z,1.40
2022-07-26T12:21:06.016Z,1.15
2022-07-26T12:23:50.079Z,1.17
2022-07-26T12:26:25.581Z,1.30
2022-07-26T12:28:54.620Z,0.77
2022-07-26T12:31:26.149Z,0.98
2022-07-26T12:33:53.096Z,1.50
2022-07-26T12:36:28.249Z,1.02
2022-07-26T12:38:57.364Z,1.08
2022-07-26T12:41:38.603Z,1.15
2022-07-26T12:44:06.732Z,1.30
2022-07-26T12:46:35.079Z,0.77
2022-07-26T12:49:03.142Z,1.42
2022-07-26T12:51:29.844Z,1.45
2022-07-26T12:53:56.632Z,1.13
2022-07-26T12:56:23.282Z,0.98
2022-07-26T12:58:49.941Z,0.50
2022-07-26T13:01:16.738Z,1.23
2022-07-26T13:03:44.314Z,0.70
2022-07-26T13:06:11.167Z,1.42
2022-07-26T13:08:38.108Z,0.95
2022-07-26T13:11:04.806Z,1.35
2022-07-26T13:13:31.510Z,0.40
2022-07-26T13:15:58.724Z,0.30
2022-07-26T13:18:25.489Z,0.65
2022-07-26T13:20:52.156Z,0.88
2022-07-26T13:23:21.756Z,1.10
2022-07-26T13:25:49.680Z,1.58
2022-07-26T13:28:17.372Z,1.13
2022-07-26T13:30:44.958Z,1.25
2022-07-26T13:33:12.203Z,2.75
2022-07-26T13:35:41.275Z,1.83
2022-07-26T13:38:09.025Z,2.60
2022-07-26T13:40:36.124Z,2.08
2022-07-26T13:43:04.187Z,1.67
2022-07-26T13:45:30.876Z,1.02
2022-07-26T13:47:59.080Z,0.70
2022-07-26T13:50:29.515Z,2.15
2022-07-26T13:52:56.876Z,1.45
2022-07-26T13:55:24.494Z,1.67
2022-07-26T13:57:56.153Z,1.27
2022-07-26T14:00:25.560Z,1.25
2022-07-26T14:02:52.366Z,2.28
2022-07-26T14:05:20.320Z,1.92
2022-07-26T14:07:46.968Z,1.85
2022-07-26T14:10:13.659Z,0.88
2022-07-26T14:12:40.779Z,1.02
2022-07-26T14:15:16.680Z,1.00
2022-07-26T14:17:47.163Z,1.35
2022-07-26T14:20:16.798Z,1.58
2022-07-26T14:22:43.607Z,1.23
2022-07-26T14:25:10.540Z,1.25
2022-07-26T14:27:37.354Z,0.82
2022-07-26T14:30:05.176Z,1.48
2022-07-26T14:32:31.959Z,1.45
2022-07-26T14:34:58.604Z,1.63
2022-07-26T14:37:43.091Z,1.63
2022-07-26T14:40:14.047Z,1.15
2022-07-26T14:42:40.793Z,1.45
2022-07-26T14:45:09.333Z,1.55
2022-07-26T14:47:36.098Z,1.50
2022-07-26T14:50:06.476Z,1.38
2022-07-26T14:52:36.579Z,1.45
2022-07-26T14:55:03.512Z,0.95
2022-07-26T14:57:30.144Z,1.15
2022-07-26T14:59:56.776Z,1.10
2022-07-26T15:02:23.541Z,0.77
2022-07-26T15:04:50.251Z,1.52
2022-07-26T15:07:16.893Z,2.33
2022-07-26T15:09:43.498Z,1.58
2022-07-26T15:12:10.392Z,2.03
2022-07-26T15:14:37.191Z,0.80
2022-07-26T15:17:03.941Z,1.67
2022-07-26T15:19:30.610Z,1.10
2022-07-26T15:21:58.829Z,1.45
2022-07-26T15:24:27.025Z,1.15
2022-07-26T15:26:53.750Z,1.60
2022-07-26T15:29:20.646Z,1.83
2022-07-26T15:31:48.769Z,1.77
2022-07-26T15:34:16.046Z,2.80
2022-07-26T15:36:42.794Z,1.85
2022-07-26T15:39:18.105Z,1.73
2022-07-26T15:41:46.659Z,1.85
2022-07-26T15:44:18.435Z,2.13
2022-07-26T15:46:46.961Z,2.00
2022-07-26T15:49:16.044Z,1.55
2022-07-26T15:51:43.457Z,1.52
2022-07-26T15:54:12.051Z,1.02
2022-07-26T15:56:39.017Z,2.38
2022-07-26T15:59:09.088Z,2.50
2022-07-26T16:01:36.896Z,2.42
2022-07-26T16:04:05.150Z,2.22
2022-07-26T16:06:34.821Z,2.08
2022-07-26T16:09:18.870Z,1.50
2022-07-26T16:11:47.345Z,2.08
2022-07-26T16:14:15.091Z,1.92
2022-07-26T16:16:44.527Z,2.17
2022-07-26T16:19:12.224Z,2.63
2022-07-26T16:21:40.338Z,1.63
2022-07-26T16:24:08.021Z,1.35
2022-07-26T16:26:35.690Z,2.25
2022-07-26T16:29:03.475Z,1.38
2022-07-26T16:31:31.085Z,2.28
2022-07-26T16:33:57.990Z,1.52
2022-07-26T16:36:24.962Z,1.85
2022-07-26T16:38:51.803Z,1.73
2022-07-26T16:41:18.533Z,1.60
2022-07-26T16:43:45.422Z,1.75
2022-07-26T16:46:12.194Z,1.85
2022-07-26T16:48:38.936Z,1.90
2022-07-26T16:51:05.739Z,2.38
2022-07-26T16:53:32.489Z,1.70
2022-07-26T16:55:59.758Z,2.55
2022-07-26T16:58:26.459Z,1.45
2022-07-26T17:00:53.286Z,2.10
2022-07-26T17:03:20.043Z,2.50
2022-07-26T17:05:47.183Z,1.67
2022-07-26T17:08:14.066Z,2.63
2022-07-26T17:10:40.893Z,1.98
2022-07-26T17:13:07.579Z,2.83
2022-07-26T17:15:34.555Z,1.73
2022-07-26T17:18:01.399Z,2.10
2022-07-26T17:20:28.851Z,1.50
2022-07-26T17:22:55.762Z,2.38
2022-07-26T17:25:22.459Z,3.90
2022-07-26T17:27:50.520Z,2.58
2022-07-26T17:30:17.336Z,3.20
2022-07-26T17:32:44.353Z,4.38
2022-07-26T17:35:11.314Z,2.53
2022-07-26T17:37:38.115Z,2.22
2022-07-26T17:40:08.254Z,1.67
2022-07-26T17:42:37.068Z,1.92
2022-07-26T17:45:07.638Z,1.58
2022-07-26T17:47:34.439Z,2.70
2022-07-26T17:52:51.228Z,3.08
2022-07-26T17:55:18.970Z,2.15
2022-07-26T17:57:48.122Z,2.33
2022-07-26T18:00:17.775Z,2.90
2022-07-26T18:02:44.559Z,1.75
2022-07-26T18:05:11.459Z,2.20
2022-07-26T18:07:39.969Z,1.75
2022-07-26T18:10:07.734Z,3.33
2022-07-26T18:12:34.796Z,3.05
2022-07-26T18:15:01.453Z,3.80
2022-07-26T18:17:28.175Z,1.55
2022-07-26T18:19:54.843Z,2.58
2022-07-26T18:22:23.080Z,2.35
2022-07-26T18:24:49.787Z,2.50
2022-07-26T18:27:16.398Z,1.15
2022-07-26T18:29:43.081Z,1.23
2022-07-26T18:32:10.017Z,1.55
2022-07-26T18:34:36.634Z,2.97
2022-07-26T18:37:03.297Z,3.03
2022-07-26T18:39:33.074Z,2.38
2022-07-26T18:42:00.507Z,1.85
2022-07-26T18:44:27.256Z,2.28
2022-07-26T18:46:55.942Z,3.03
2022-07-26T18:49:23.006Z,2.22
2022-07-26T18:51:50.134Z,2.53
2022-07-26T18:54:19.880Z,1.73
2022-07-26T18:56:46.550Z,1.90
2022-07-26T18:59:13.715Z,2.28
2022-07-26T19:01:40.729Z,2.45
2022-07-26T19:04:07.746Z,2.60
2022-07-26T19:06:35.560Z,2.08
2022-07-26T19:09:02.616Z,1.60
2022-07-26T19:11:30.177Z,2.33
2022-07-26T19:13:57.098Z,1.98
2022-07-26T19:16:26.437Z,1.67
2022-07-26T19:18:57.259Z,1.73
2022-07-26T19:21:24.401Z,1.38
2022-07-26T19:23:51.091Z,1.80
2022-07-26T19:26:17.764Z,1.70
2022-07-26T19:28:44.520Z,3.42
2022-07-26T19:31:11.252Z,1.27
2022-07-26T19:33:38.031Z,1.48
2022-07-26T19:36:04.937Z,2.72
2022-07-26T19:38:32.884Z,3.67
2022-07-26T19:41:00.247Z,3.10
2022-07-26T19:43:27.470Z,2.83
2022-07-26T19:45:54.339Z,1.88
2022-07-26T19:48:21.204Z,1.95
2022-07-26T19:50:47.837Z,2.40
2022-07-26T19:53:14.546Z,1.85
2022-07-26T19:55:42.341Z,2.40
2022-07-26T19:58:09.257Z,1.60
2022-07-26T20:00:36.252Z,1.73
2022-07-26T20:03:03.517Z,2.05
2022-07-26T20:05:30.238Z,2.45
2022-07-26T20:07:57.013Z,1.70
2022-07-26T20:10:27.345Z,1.85
2022-07-26T20:12:56.799Z,1.75
2022-07-26T20:15:23.540Z,2.17
2022-07-26T20:17:50.153Z,1.85
2022-07-26T20:20:17.838Z,1.40
2022-07-26T20:22:44.519Z,1.60
2022-07-26T20:25:11.485Z,1.45
2022-07-26T20:27:38.187Z,1.73
2022-07-26T20:30:05.888Z,1.75
2022-07-26T20:32:32.538Z,1.50
2022-07-26T20:34:59.218Z,1.73
2022-07-26T20:37:25.990Z,1.40
2022-07-26T20:39:52.589Z,3.30
2022-07-26T20:42:21.746Z,2.92
2022-07-26T20:44:48.908Z,1.88
2022-07-26T20:47:15.574Z,1.98
2022-07-26T20:49:42.248Z,2.35
2022-07-26T20:52:08.926Z,1.33
2022-07-26T20:54:35.617Z,2.30
2022-07-26T20:57:04.544Z,4.70
2022-07-26T20:59:32.260Z,1.85
2022-07-26T21:01:59.024Z,2.03
2022-07-26T21:04:26.375Z,1.77
2022-07-26T21:06:53.170Z,2.15
2022-07-26T21:09:19.922Z,2.78
2022-07-26T21:11:46.753Z,2.67
2022-07-26T21:14:16.568Z,2.05
2022-07-26T21:16:43.309Z,2.45
2022-07-26T21:19:10.234Z,2.88
2022-07-26T21:21:38.016Z,3.10
2022-07-26T21:24:07.919Z,2.03
2022-07-26T21:26:34.995Z,1.25
2022-07-26T21:29:01.901Z,2.95
2022-07-26T21:31:28.603Z,2.83
2022-07-26T21:33:55.289Z,2.80
2022-07-26T21:36:22.465Z,1.50
2022-07-26T21:38:49.122Z,1.95
2022-07-26T21:41:15.799Z,2.22
2022-07-26T21:43:42.455Z,1.15
2022-07-26T21:46:12.714Z,2.75
2022-07-26T21:48:40.175Z,2.28
2022-07-26T21:51:06.845Z,2.75
2022-07-26T21:53:33.471Z,3.17
2022-07-26T21:56:00.107Z,3.50
2022-07-26T21:58:28.102Z,3.70
2022-07-26T22:01:03.278Z,4.88
2022-07-26T22:03:35.040Z,4.38
2022-07-26T22:06:01.705Z,4.70
2022-07-26T22:08:28.376Z,6.78
2022-07-26T22:10:55.144Z,4.43
2022-07-26T22:13:21.786Z,2.47
2022-07-26T22:15:48.528Z,4.22
2022-07-26T22:18:15.512Z,4.78
2022-07-26T22:20:43.930Z,9.10
2022-07-26T22:23:12.754Z,6.97
2022-07-26T22:25:39.777Z,3.17
2022-07-26T22:28:08.434Z,2.67
2022-07-26T22:30:35.448Z,3.30
2022-07-26T22:33:03.569Z,2.40
2022-07-26T22:35:36.141Z,3.45
2022-07-26T22:38:12.645Z,2.38
2022-07-26T22:40:41.629Z,2.55
2022-07-26T22:43:10.257Z,2.78
2022-07-26T22:45:37.851Z,2.58
2022-07-26T22:48:05.589Z,3.22
2022-07-26T22:50:33.485Z,3.42
2022-07-26T22:53:01.163Z,3.95
2022-07-26T22:55:29.149Z,2.63
2022-07-26T22:57:56.083Z,2.95
2022-07-26T23:00:23.116Z,3.28
2022-07-26T23:02:50.216Z,2.85
2022-07-26T23:05:17.455Z,2.28
2022-07-26T23:07:47.766Z,4.15
2022-07-26T23:10:15.785Z,3.40
2022-07-26T23:12:42.512Z,2.50
2022-07-26T23:15:10.128Z,2.65
2022-07-26T23:17:37.640Z,2.03
2022-07-26T23:20:06.351Z,2.50
2022-07-26T23:22:33.407Z,3.25
2022-07-26T23:25:00.033Z,1.90
2022-07-26T23:27:26.759Z,3.47
2022-07-26T23:29:53.429Z,1.70
2022-07-26T23:32:20.070Z,2.50
2022-07-26T23:34:46.690Z,2.13
2022-07-26T23:37:13.361Z,2.42
2022-07-26T23:39:40.058Z,2.72
2022-07-26T23:42:07.203Z,1.88
2022-07-26T23:44:34.316Z,2.20
2022-07-26T23:47:01.300Z,2.60
2022-07-26T23:49:28.043Z,2.67
2022-07-26T23:51:54.788Z,2.53
2022-07-26T23:54:21.538Z,2.95
2022-07-26T23:56:48.270Z,3.42
2022-07-26T23:59:15.366Z,3.10
